Time;durP1;ratioP1;P1;durP2;ratioP2;P2;SDS_P1;SDS_P2;PMS_P1;PMS_P2;Temp;Humidity;BMP_temperature;BMP_pressure;BME280_temperature;BME280_humidity;BME280_pressure;Samples;Min_cycle;Max_cycle;Signal;HPM_P1;HPM_P2
2022/05/05 00:01:42;;;;;;;10.15;8.30;;;15.40;91.80;;;;;;5026168;28;20206;-35
2022/05/05 00:04:10;;;;;;;10.90;8.45;;;15.30;91.80;;;;;;5030710;28;20518;-35
2022/05/05 00:06:37;;;;;;;11.95;8.40;;;15.30;91.80;;;;;;5034079;28;20683;-35
2022/05/05 00:09:07;;;;;;;14.13;8.80;;;15.30;91.80;;;;;;5031038;28;20606;-35
2022/05/05 00:14:23;;;;;;;12.38;8.48;;;15.30;91.90;;;;;;5035700;28;20231;-35
2022/05/05 00:16:59;;;;;;;11.18;7.70;;;15.20;91.80;;;;;;5046880;28;20644;-35
2022/05/05 00:19:29;;;;;;;12.20;7.88;;;15.20;91.90;;;;;;5034495;28;20685;-35
2022/05/05 00:21:57;;;;;;;11.40;7.80;;;15.20;91.90;;;;;;5040851;28;20932;-35
2022/05/05 00:24:24;;;;;;;10.98;7.93;;;15.20;91.80;;;;;;5030353;28;20754;-35
2022/05/05 00:26:54;;;;;;;10.75;7.88;;;15.20;91.90;;;;;;5034544;28;20248;-35
2022/05/05 00:29:22;;;;;;;12.65;8.07;;;15.20;91.90;;;;;;5029102;28;20232;-35
2022/05/05 00:31:52;;;;;;;11.60;7.28;;;15.20;91.90;;;;;;5029129;28;20773;-35
2022/05/05 00:34:20;;;;;;;9.80;7.75;;;15.10;91.90;;;;;;5028391;28;20351;-35
2022/05/05 00:36:51;;;;;;;10.43;8.10;;;15.20;92.00;;;;;;5038622;28;20255;-35
2022/05/05 00:39:19;;;;;;;10.38;8.15;;;15.10;92.00;;;;;;5039499;28;20250;-35
2022/05/05 00:41:47;;;;;;;10.68;7.53;;;15.20;92.10;;;;;;5039851;28;20299;-35
2022/05/05 00:44:17;;;;;;;10.90;7.80;;;15.20;92.10;;;;;;5025216;28;20712;-35
2022/05/05 00:46:48;;;;;;;11.05;7.60;;;15.10;92.00;;;;;;5026694;28;20286;-35
2022/05/05 00:49:18;;;;;;;11.43;8.10;;;15.10;92.00;;;;;;5039086;28;20740;-35
2022/05/05 00:51:48;;;;;;;11.30;8.13;;;15.10;92.10;;;;;;5017369;28;20730;-35
2022/05/05 00:54:15;;;;;;;10.35;7.90;;;15.10;92.10;;;;;;5044203;28;20252;-35
2022/05/05 00:56:45;;;;;;;10.27;7.68;;;15.10;92.00;;;;;;5045542;28;20207;-35
2022/05/05 00:59:16;;;;;;;11.25;8.00;;;15.10;92.10;;;;;;5030884;28;20568;-35
2022/05/05 01:01:43;;;;;;;11.35;8.63;;;15.10;92.10;;;;;;5042035;28;20215;-35
2022/05/05 01:04:10;;;;;;;11.85;7.90;;;15.10;92.20;;;;;;5044578;28;20214;-35
2022/05/05 01:06:41;;;;;;;11.00;7.72;;;15.10;92.10;;;;;;5040936;28;20255;-35
2022/05/05 01:09:08;;;;;;;13.02;8.63;;;15.10;92.20;;;;;;5042453;28;20764;-35
2022/05/05 01:11:38;;;;;;;10.05;8.20;;;15.10;92.20;;;;;;5044072;28;20232;-35
2022/05/05 01:14:05;;;;;;;10.80;8.10;;;15.10;92.30;;;;;;5038549;28;20684;-35
2022/05/05 01:16:33;;;;;;;12.13;8.63;;;15.10;92.30;;;;;;5043415;28;20274;-35
2022/05/05 01:19:00;;;;;;;9.88;7.88;;;15.10;92.40;;;;;;5040159;28;20212;-35
2022/05/05 01:21:28;;;;;;;9.90;8.05;;;15.00;92.30;;;;;;5036031;28;20247;-35
2022/05/05 01:23:55;;;;;;;11.73;8.75;;;15.00;92.40;;;;;;5031400;28;20224;-37
2022/05/05 01:29:13;;;;;;;12.55;8.35;;;15.00;92.50;;;;;;5044021;28;20293;-38
2022/05/05 01:31:43;;;;;;;11.70;8.13;;;15.00;92.50;;;;;;5038672;28;20232;-38
2022/05/05 01:34:11;;;;;;;11.85;8.55;;;15.00;92.50;;;;;;5045996;28;20235;-38
2022/05/05 01:36:41;;;;;;;11.18;8.77;;;15.00;92.50;;;;;;5040764;28;20224;-38
2022/05/05 01:39:10;;;;;;;10.30;8.32;;;15.00;92.60;;;;;;5029324;28;20822;-38
2022/05/05 01:41:38;;;;;;;11.75;9.18;;;15.00;92.60;;;;;;5031992;28;20212;-38
2022/05/05 01:44:05;;;;;;;11.23;7.95;;;15.00;92.60;;;;;;5044507;28;20215;-38
2022/05/05 01:46:32;;;;;;;10.00;8.50;;;15.00;92.60;;;;;;5029249;28;20196;-38
2022/05/05 01:48:59;;;;;;;10.68;8.68;;;15.00;92.60;;;;;;5035848;28;20200;-38
2022/05/05 01:51:27;;;;;;;10.07;8.40;;;15.00;92.70;;;;;;5042393;28;20200;-38
2022/05/05 01:53:54;;;;;;;14.00;9.07;;;15.00;92.70;;;;;;5034886;28;20219;-38
2022/05/05 01:56:23;;;;;;;13.07;9.30;;;15.00;92.70;;;;;;5034084;28;20199;-38
2022/05/05 01:58:51;;;;;;;12.15;9.00;;;15.00;92.70;;;;;;5036840;28;20227;-38
2022/05/05 02:01:21;;;;;;;12.00;8.35;;;15.00;92.80;;;;;;5039422;28;20227;-38
2022/05/05 02:03:48;;;;;;;11.43;8.30;;;14.90;92.70;;;;;;5027167;28;20608;-38
2022/05/05 02:06:16;;;;;;;11.70;8.68;;;14.90;92.70;;;;;;5028497;28;20659;-38
2022/05/05 02:08:43;;;;;;;10.73;8.65;;;14.90;92.80;;;;;;5037322;28;20405;-38
2022/05/05 02:11:13;;;;;;;12.38;8.55;;;14.90;92.80;;;;;;5043273;28;20302;-38
2022/05/05 02:13:40;;;;;;;10.25;7.95;;;14.90;93.10;;;;;;5044210;28;20220;-37
2022/05/05 02:16:08;;;;;;;10.55;7.82;;;14.90;92.80;;;;;;5046847;28;20263;-37
2022/05/05 02:18:35;;;;;;;11.52;8.32;;;14.90;92.80;;;;;;5037641;28;20200;-38
2022/05/05 02:21:05;;;;;;;10.90;8.23;;;14.90;92.90;;;;;;5035473;28;20766;-37
2022/05/05 02:23:32;;;;;;;11.13;8.60;;;14.90;92.90;;;;;;5040689;28;20212;-38
2022/05/05 02:26:02;;;;;;;14.77;9.02;;;14.90;93.20;;;;;;5041259;28;20477;-37
2022/05/05 02:28:49;;;;;;;12.95;8.65;;;15.00;92.90;;;;;;5032634;28;20223;-38
2022/05/05 02:31:16;;;;;;;11.98;8.60;;;15.00;92.90;;;;;;5045217;28;20268;-38
2022/05/05 02:33:44;;;;;;;12.38;8.73;;;15.00;92.90;;;;;;5034926;28;20274;-38
2022/05/05 02:38:57;;;;;;;11.90;9.10;;;15.00;93.00;;;;;;5030357;28;20244;-38
2022/05/05 02:41:24;;;;;;;11.75;9.50;;;15.00;92.90;;;;;;5034239;28;20201;-38
2022/05/05 02:43:56;;;;;;;13.55;10.02;;;15.00;92.90;;;;;;5026636;28;20201;-38
2022/05/05 02:46:25;;;;;;;13.05;9.27;;;15.00;93.00;;;;;;5027346;28;20211;-38
2022/05/05 02:48:53;;;;;;;13.52;9.57;;;15.00;93.00;;;;;;5033747;28;20216;-38
2022/05/05 02:51:22;;;;;;;12.70;9.70;;;15.00;93.00;;;;;;5031294;28;20211;-35
2022/05/05 02:56:35;;;;;;;12.15;9.32;;;15.00;93.00;;;;;;5031383;28;20286;-35
2022/05/05 02:59:02;;;;;;;12.88;9.80;;;15.00;93.00;;;;;;5039375;28;20543;-35
2022/05/05 03:01:29;;;;;;;13.18;10.05;;;15.00;93.10;;;;;;5041337;28;20572;-35
2022/05/05 03:03:59;;;;;;;13.35;10.05;;;15.00;93.00;;;;;;5045632;28;20203;-35
2022/05/05 03:06:26;;;;;;;14.57;9.80;;;15.00;93.10;;;;;;5039333;28;20695;-35
2022/05/05 03:08:55;;;;;;;13.48;10.45;;;14.90;93.10;;;;;;5036131;28;20208;-35
2022/05/05 03:11:22;;;;;;;13.73;10.30;;;14.90;93.00;;;;;;5033229;28;20223;-35
2022/05/05 03:13:50;;;;;;;13.23;10.77;;;14.90;93.10;;;;;;5042309;28;20673;-35
2022/05/05 03:16:17;;;;;;;14.82;10.40;;;14.90;93.10;;;;;;5041815;28;20612;-35
2022/05/05 03:18:47;;;;;;;17.70;11.48;;;15.00;93.20;;;;;;5024524;28;20558;-35
2022/05/05 03:21:14;;;;;;;16.30;11.30;;;14.90;93.10;;;;;;5027147;28;20220;-36
2022/05/05 03:23:41;;;;;;;15.43;10.75;;;14.90;93.10;;;;;;5035563;28;20220;-35
2022/05/05 03:26:12;;;;;;;17.45;11.30;;;14.90;93.20;;;;;;5043382;28;20215;-35
2022/05/05 03:28:39;;;;;;;15.20;11.60;;;14.90;93.20;;;;;;5035521;28;20221;-35
2022/05/05 03:31:07;;;;;;;15.50;11.60;;;14.90;93.50;;;;;;5037421;28;20232;-35
2022/05/05 03:33:36;;;;;;;16.88;11.55;;;14.90;93.20;;;;;;5046197;28;20254;-36
2022/05/05 03:36:06;;;;;;;15.13;10.95;;;14.90;93.20;;;;;;5030323;28;20235;-38
2022/05/05 03:38:34;;;;;;;13.65;10.75;;;14.90;93.20;;;;;;5039665;28;20259;-35
2022/05/05 03:41:06;;;;;;;15.30;11.10;;;14.90;93.20;;;;;;5043905;28;20208;-35
2022/05/05 03:43:33;;;;;;;14.38;10.85;;;14.90;93.30;;;;;;5047047;28;20210;-35
2022/05/05 03:46:06;;;;;;;15.80;11.25;;;14.90;93.30;;;;;;5048933;28;20270;-35
2022/05/05 03:48:33;;;;;;;13.88;10.80;;;14.90;93.30;;;;;;5035286;28;20250;-35
2022/05/05 03:51:01;;;;;;;14.43;10.70;;;14.90;93.30;;;;;;5038030;28;20208;-35
2022/05/05 03:53:32;;;;;;;14.65;10.82;;;14.90;93.40;;;;;;5042896;28;20215;-37
2022/05/05 03:56:02;;;;;;;13.27;10.63;;;14.90;93.40;;;;;;5036935;28;20591;-38
2022/05/05 03:58:34;;;;;;;15.23;10.95;;;14.90;93.40;;;;;;5037710;28;20288;-38
2022/05/05 04:01:01;;;;;;;15.20;11.18;;;14.90;93.40;;;;;;5044987;28;20200;-38
2022/05/05 04:03:31;;;;;;;14.32;10.48;;;14.90;93.40;;;;;;5042061;28;20288;-37
2022/05/05 04:06:02;;;;;;;15.43;12.20;;;14.90;93.40;;;;;;5047660;28;20354;-37
2022/05/05 04:08:30;;;;;;;16.00;11.27;;;15.00;93.50;;;;;;5036899;28;20310;-37
2022/05/05 04:10:58;;;;;;;16.42;12.13;;;14.90;93.50;;;;;;5036440;28;20271;-38
2022/05/05 04:13:25;;;;;;;17.77;12.38;;;14.90;93.50;;;;;;5044541;28;20231;-38
2022/05/05 04:15:53;;;;;;;17.67;11.65;;;14.90;93.50;;;;;;5048895;28;20332;-38
2022/05/05 04:18:20;;;;;;;17.10;12.50;;;14.90;93.50;;;;;;5040122;28;20204;-38
2022/05/05 04:20:47;;;;;;;17.27;13.27;;;14.90;93.50;;;;;;5031010;28;20213;-36
2022/05/05 04:23:15;;;;;;;17.67;13.68;;;14.90;93.60;;;;;;5042663;28;20201;-35
2022/05/05 04:26:04;;;;;;;20.67;14.65;;;15.00;93.60;;;;;;5043026;28;20207;-36
2022/05/05 04:28:32;;;;;;;20.17;13.88;;;14.90;93.60;;;;;;5045612;28;20554;-36
2022/05/05 04:30:59;;;;;;;20.92;13.60;;;14.90;93.60;;;;;;5036551;28;20241;-35
2022/05/05 04:33:26;;;;;;;20.92;13.80;;;14.90;93.60;;;;;;5043851;28;20208;-35
2022/05/05 04:35:54;;;;;;;19.70;13.43;;;14.90;93.70;;;;;;5048482;28;20307;-35
2022/05/05 04:38:21;;;;;;;20.27;14.40;;;14.90;93.70;;;;;;5039294;28;20208;-35
2022/05/05 04:40:51;;;;;;;22.20;14.93;;;14.90;93.70;;;;;;5039623;28;20197;-36
2022/05/05 04:43:18;;;;;;;17.92;13.63;;;14.90;94.00;;;;;;5033264;28;20566;-36
2022/05/05 04:45:50;;;;;;;19.42;14.98;;;15.00;93.80;;;;;;5032218;28;20581;-36
2022/05/05 04:48:17;;;;;;;21.10;15.57;;;15.00;93.90;;;;;;5039023;28;20239;-35
2022/05/05 04:50:44;;;;;;;20.35;14.95;;;15.00;93.90;;;;;;5039784;28;20219;-36
2022/05/05 04:53:11;;;;;;;22.42;16.27;;;15.00;93.90;;;;;;5045402;28;20788;-35
2022/05/05 04:55:39;;;;;;;21.48;15.63;;;15.00;94.00;;;;;;5037260;28;20247;-35
2022/05/05 04:58:06;;;;;;;21.67;15.88;;;15.00;94.00;;;;;;5039702;28;20201;-35
2022/05/05 05:00:36;;;;;;;24.45;15.63;;;15.00;94.00;;;;;;5039548;28;20258;-35
2022/05/05 05:03:32;;;;;;;23.13;15.43;;;15.00;94.00;;;;;;5039865;28;20204;-36
2022/05/05 05:05:53;;;;;;;20.95;16.25;;;15.00;94.00;;;;;;5029008;28;20292;-36
2022/05/05 05:08:20;;;;;;;24.35;17.23;;;15.00;94.00;;;;;;5033325;28;20676;-36
2022/05/05 05:10:49;;;;;;;25.10;16.80;;;15.00;94.10;;;;;;5030588;28;20262;-35
2022/05/05 05:13:17;;;;;;;22.55;16.83;;;15.00;94.10;;;;;;5029581;28;20576;-38
2022/05/05 05:20:09;;;;;;;21.38;16.55;;;15.00;94.30;;;;;;5029028;28;20242;-37
2022/05/05 05:22:41;;;;;;;23.90;15.93;;;15.00;94.10;;;;;;5023494;28;20275;-36
2022/05/05 05:25:09;;;;;;;23.85;17.05;;;15.00;94.10;;;;;;5027431;28;20205;-36
2022/05/05 06:12:51;;;;;;;21.83;15.60;;;15.40;94.90;;;;;;5027829;28;20757;-35
2022/05/05 06:15:27;;;;;;;25.80;16.75;;;15.40;94.90;;;;;;5028071;28;20286;-38
2022/05/05 06:26:58;;;;;;;22.88;15.95;;;15.80;95.20;;;;;;5035129;28;20291;-38
2022/05/05 06:29:25;;;;;;;20.85;16.00;;;15.90;95.30;;;;;;5026621;28;20262;-37
2022/05/05 06:31:53;;;;;;;24.52;17.25;;;16.00;95.40;;;;;;5027787;28;20707;-37
2022/05/05 06:34:20;;;;;;;23.77;15.88;;;16.10;95.50;;;;;;5044356;28;20647;-37
2022/05/05 06:36:48;;;;;;;22.13;17.42;;;16.20;95.50;;;;;;5043963;28;20236;-38
2022/05/05 06:39:15;;;;;;;32.20;18.92;;;16.30;95.60;;;;;;5025638;28;20287;-35
2022/05/05 06:41:42;;;;;;;22.95;16.83;;;16.40;95.70;;;;;;5038004;28;20216;-35
2022/05/05 06:44:10;;;;;;;24.67;17.50;;;16.50;95.70;;;;;;5040078;28;20307;-35
2022/05/05 06:46:39;;;;;;;22.15;17.65;;;16.70;95.80;;;;;;5027414;28;20303;-35
2022/05/05 06:49:07;;;;;;;25.20;18.20;;;16.70;95.80;;;;;;5032506;28;20196;-35
2022/05/05 06:51:34;;;;;;;22.23;17.80;;;16.80;95.80;;;;;;5047796;28;20207;-35
2022/05/05 06:54:01;;;;;;;23.92;18.67;;;16.90;95.90;;;;;;5043246;28;20208;-35
2022/05/05 06:56:31;;;;;;;27.55;19.73;;;16.90;95.90;;;;;;5030973;28;20323;-35
2022/05/05 06:59:02;;;;;;;28.88;19.95;;;17.00;96.00;;;;;;5039625;28;20208;-35
2022/05/05 07:07:13;;;;;;;28.33;21.70;;;17.20;96.00;;;;;;5033534;28;20217;-36
2022/05/05 07:12:32;;;;;;;31.33;22.58;;;17.30;96.10;;;;;;5033513;28;20240;-36
2022/05/05 07:15:01;;;;;;;30.17;22.83;;;17.40;96.10;;;;;;5035127;28;20695;-36
2022/05/05 07:17:29;;;;;;;29.15;21.48;;;17.40;96.10;;;;;;5032716;28;20233;-36
2022/05/05 07:19:56;;;;;;;29.00;21.00;;;17.50;96.10;;;;;;5027968;28;20197;-36
2022/05/05 07:22:23;;;;;;;24.48;19.88;;;17.50;96.10;;;;;;5029887;28;20273;-39
2022/05/05 07:24:50;;;;;;;23.60;20.02;;;17.60;96.20;;;;;;5031934;28;20213;-39
2022/05/05 07:27:18;;;;;;;25.48;20.42;;;17.70;96.20;;;;;;5036699;28;20208;-39
2022/05/05 07:29:45;;;;;;;27.23;20.35;;;17.70;96.20;;;;;;5032975;28;20216;-38
2022/05/05 07:32:13;;;;;;;25.75;20.45;;;17.80;96.30;;;;;;5042157;28;20212;-38
2022/05/05 07:34:40;;;;;;;27.20;20.75;;;17.90;96.30;;;;;;5038682;28;20220;-39
2022/05/05 07:37:07;;;;;;;27.00;21.67;;;18.00;96.30;;;;;;5045334;28;20837;-38
2022/05/05 07:39:35;;;;;;;30.65;22.45;;;18.00;96.30;;;;;;5049750;28;20606;-39
2022/05/05 07:42:02;;;;;;;27.58;20.55;;;18.00;96.30;;;;;;5042080;28;20208;-39
2022/05/05 07:44:29;;;;;;;28.45;21.50;;;18.10;96.30;;;;;;5037410;28;20283;-38
2022/05/05 07:46:57;;;;;;;27.65;20.88;;;18.10;96.30;;;;;;5031351;28;20619;-38
2022/05/05 07:49:24;;;;;;;30.13;22.80;;;18.20;96.30;;;;;;5031696;28;20298;-39
2022/05/05 07:51:52;;;;;;;30.00;22.52;;;18.20;96.30;;;;;;5030582;28;20216;-38
2022/05/05 07:54:34;;;;;;;27.98;22.77;;;18.20;96.20;;;;;;5031529;28;20216;-39
2022/05/05 07:57:07;;;;;;;26.90;21.80;;;18.20;96.30;;;;;;5034599;28;20220;-38
2022/05/05 07:59:34;;;;;;;30.17;22.45;;;18.20;96.30;;;;;;5034806;28;20217;-38
2022/05/05 08:02:03;;;;;;;29.75;22.80;;;18.20;96.30;;;;;;5031293;28;20209;-42
2022/05/05 08:04:32;;;;;;;32.25;24.17;;;18.20;96.30;;;;;;5029033;28;20668;-39
2022/05/05 08:06:59;;;;;;;28.88;22.17;;;18.20;96.40;;;;;;5031447;28;20221;-39
2022/05/05 08:09:26;;;;;;;29.63;23.02;;;18.20;96.30;;;;;;5028300;28;20611;-39
2022/05/05 08:12:16;;;;;;;31.52;24.25;;;18.20;96.40;;;;;;5036123;28;20236;-39
2022/05/05 08:14:45;;;;;;;31.23;23.88;;;18.20;96.50;;;;;;5047903;28;20208;-36
2022/05/05 08:17:13;;;;;;;30.75;23.92;;;18.30;96.60;;;;;;5031107;28;20632;-36
2022/05/05 08:19:41;;;;;;;28.25;20.83;;;18.30;96.70;;;;;;5035626;28;20250;-36
2022/05/05 08:22:09;;;;;;;30.27;23.20;;;18.40;96.70;;;;;;5046404;28;20568;-36
2022/05/05 08:30:08;;;;;;;26.08;21.48;;;18.70;96.90;;;;;;5049005;28;20211;-36
2022/05/05 08:32:35;;;;;;;27.58;22.60;;;18.70;97.00;;;;;;5037896;28;20221;-36
2022/05/05 08:35:06;;;;;;;29.83;22.45;;;18.80;97.00;;;;;;5028560;28;20266;-36
2022/05/05 08:37:33;;;;;;;32.17;23.05;;;18.90;97.10;;;;;;5043296;28;20224;-36
2022/05/05 08:40:01;;;;;;;31.92;22.70;;;19.00;97.10;;;;;;5043092;28;20579;-36
2022/05/05 08:42:29;;;;;;;28.02;20.83;;;19.10;97.20;;;;;;5015807;28;20279;-36
2022/05/05 08:44:59;;;;;;;26.60;20.98;;;19.10;97.20;;;;;;5028782;28;20209;-36
2022/05/05 08:47:31;;;;;;;29.40;22.95;;;19.20;97.30;;;;;;5035081;28;20231;-36
2022/05/05 08:50:00;;;;;;;30.85;22.63;;;19.20;97.30;;;;;;5043709;28;20227;-36
2022/05/05 08:52:50;;;;;;;29.25;22.08;;;19.30;97.30;;;;;;5035307;28;20570;-37
2022/05/05 08:55:21;;;;;;;29.45;23.10;;;19.40;97.40;;;;;;5040257;28;20299;-36
2022/05/05 08:57:49;;;;;;;29.17;22.85;;;19.50;97.40;;;;;;5040229;28;20234;-36
2022/05/05 09:00:18;;;;;;;27.40;20.77;;;19.50;97.40;;;;;;5048489;28;20670;-37
2022/05/05 09:02:45;;;;;;;28.45;21.67;;;19.60;97.50;;;;;;5040436;28;20259;-36
2022/05/05 09:05:13;;;;;;;28.67;22.58;;;19.70;97.50;;;;;;5032046;28;20232;-36
2022/05/05 09:07:53;;;;;;;22.83;19.80;;;19.80;97.50;;;;;;5039502;28;20311;-36
2022/05/05 09:10:21;;;;;;;23.05;18.55;;;19.90;97.60;;;;;;5036812;28;20211;-36
2022/05/05 09:12:58;;;;;;;25.45;20.38;;;19.90;97.60;;;;;;5045140;28;20653;-36
2022/05/05 09:15:31;;;;;;;27.45;20.05;;;20.00;97.60;;;;;;5028505;28;20583;-37
2022/05/05 09:18:10;;;;;;;24.75;19.42;;;20.10;97.60;;;;;;5028738;28;20275;-36
2022/05/05 09:20:40;;;;;;;21.50;18.00;;;20.10;97.60;;;;;;5026259;28;20204;-36
2022/05/05 09:26:32;;;;;;;15.65;12.25;;;20.30;97.30;;;;;;5029962;28;20634;-36
2022/05/05 09:29:28;;;;;;;14.05;11.27;;;20.20;97.30;;;;;;5028990;28;20255;-36
2022/05/05 09:32:10;;;;;;;15.95;11.98;;;20.20;97.30;;;;;;5036976;28;20208;-36
2022/05/05 09:34:39;;;;;;;17.45;12.95;;;20.30;97.40;;;;;;5045956;28;20248;-36
2022/05/05 09:37:32;;;;;;;20.23;14.45;;;20.30;97.40;;;;;;5046728;28;20235;-36
2022/05/05 09:40:02;;;;;;;15.80;12.50;;;20.30;96.80;;;;;;5029355;28;20675;-36
2022/05/05 09:42:38;;;;;;;13.50;10.32;;;20.30;97.00;;;;;;5035837;28;20200;-36
2022/05/05 09:45:18;;;;;;;11.55;8.85;;;20.20;97.00;;;;;;5034731;28;20753;-36
2022/05/05 09:47:54;;;;;;;11.90;9.63;;;20.20;96.90;;;;;;5034118;28;20238;-36
2022/05/05 09:50:23;;;;;;;11.07;9.20;;;20.20;96.70;;;;;;5043124;28;20291;-36
2022/05/05 09:58:27;;;;;;;12.80;10.40;;;20.10;96.80;;;;;;5042637;28;20303;-37
2022/05/05 10:06:27;;;;;;;13.65;10.57;;;20.20;96.90;;;;;;5041274;28;20207;-37
2022/05/05 10:08:57;;;;;;;10.20;8.43;;;20.30;97.00;;;;;;5043648;28;20565;-37
2022/05/05 10:11:27;;;;;;;11.60;9.30;;;20.30;97.00;;;;;;5043480;28;20707;-37
2022/05/05 10:13:59;;;;;;;13.65;11.43;;;20.40;97.10;;;;;;5027371;28;20773;-37
2022/05/05 10:16:27;;;;;;;16.45;12.43;;;20.50;97.20;;;;;;5028530;28;20212;-37
2022/05/05 10:18:56;;;;;;;16.92;13.05;;;20.60;97.20;;;;;;5042288;28;20220;-37
2022/05/05 10:21:44;;;;;;;16.17;13.75;;;20.70;97.20;;;;;;5047019;28;20205;-36
2022/05/05 10:24:17;;;;;;;16.08;12.23;;;20.80;97.10;;;;;;5027818;28;20219;-36
2022/05/05 10:26:55;;;;;;;15.93;13.35;;;20.80;97.20;;;;;;5031621;28;20606;-38
2022/05/05 10:29:31;;;;;;;16.58;13.25;;;20.80;97.20;;;;;;5032852;28;20209;-38
2022/05/05 10:32:09;;;;;;;14.77;11.98;;;20.90;97.20;;;;;;5028081;28;20212;-38
2022/05/05 10:34:39;;;;;;;16.20;13.10;;;20.90;97.40;;;;;;5025387;28;20244;-38
2022/05/05 10:37:11;;;;;;;22.00;17.00;;;20.90;97.20;;;;;;5039767;28;20228;-37
2022/05/05 10:39:41;;;;;;;24.30;19.08;;;21.00;97.20;;;;;;5038328;28;20204;-37
2022/05/05 10:42:14;;;;;;;21.05;18.10;;;21.00;97.10;;;;;;5029892;28;20209;-38
2022/05/05 10:45:07;;;;;;;22.08;17.80;;;21.00;97.00;;;;;;5031234;28;20212;-37
2022/05/05 10:48:01;;;;;;;21.23;18.20;;;21.10;97.10;;;;;;5029411;28;20258;-37
2022/05/05 10:50:53;;;;;;;25.40;20.50;;;21.10;97.10;;;;;;5026583;28;20302;-38
2022/05/05 10:53:33;;;;;;;22.40;18.02;;;21.10;97.00;;;;;;5040292;28;20647;-37
2022/05/05 10:56:24;;;;;;;25.38;19.33;;;21.10;97.00;;;;;;5045577;28;20303;-38
2022/05/05 10:59:23;;;;;;;23.02;20.10;;;21.10;97.00;;;;;;5042314;28;20304;-38
2022/05/05 11:01:53;;;;;;;23.80;19.70;;;21.00;97.00;;;;;;5048730;28;20291;-37
2022/05/05 11:04:21;;;;;;;25.38;19.58;;;21.10;96.90;;;;;;5050009;28;20200;-37
2022/05/05 11:07:23;;;;;;;24.50;19.67;;;21.00;96.80;;;;;;5043791;28;20213;-37
2022/05/05 11:09:50;;;;;;;24.63;18.65;;;21.00;96.90;;;;;;5029975;28;20269;-37
2022/05/05 11:12:23;;;;;;;22.90;18.17;;;20.90;96.80;;;;;;5037063;28;20306;-37
2022/05/05 11:23:49;;;;;;;19.08;16.27;;;20.80;96.80;;;;;;5035662;28;20609;-37
2022/05/05 11:26:18;;;;;;;19.75;16.02;;;20.70;96.60;;;;;;5034287;28;20205;-37
2022/05/05 11:28:47;;;;;;;20.48;15.82;;;20.70;96.70;;;;;;5040281;28;20592;-37
2022/05/05 11:31:21;;;;;;;18.02;14.80;;;20.70;96.70;;;;;;5031881;28;20579;-36
2022/05/05 11:33:56;;;;;;;17.98;15.80;;;20.70;96.80;;;;;;5036389;28;20194;-37
2022/05/05 11:36:37;;;;;;;18.15;14.15;;;20.80;96.80;;;;;;5035250;28;20557;-37
2022/05/05 11:39:06;;;;;;;15.82;13.15;;;20.80;96.80;;;;;;5039690;28;20207;-37
2022/05/05 11:41:35;;;;;;;21.27;15.18;;;20.80;96.80;;;;;;5045336;28;20314;-37
2022/05/05 11:44:14;;;;;;;18.52;16.15;;;20.90;96.80;;;;;;5037275;28;20668;-37
2022/05/05 11:46:44;;;;;;;20.02;16.80;;;21.00;96.80;;;;;;5046252;28;20204;-37
2022/05/05 11:49:13;;;;;;;21.05;16.50;;;21.10;96.70;;;;;;5039142;28;20204;-37
2022/05/05 11:51:40;;;;;;;18.92;16.38;;;21.20;96.90;;;;;;5042064;28;20274;-37
2022/05/05 11:54:14;;;;;;;18.67;16.17;;;21.20;96.80;;;;;;5039641;28;20200;-37
2022/05/05 11:56:50;;;;;;;20.77;15.98;;;21.30;96.90;;;;;;5032814;28;20220;-37
2022/05/05 12:02:19;;;;;;;14.98;13.32;;;21.40;96.90;;;;;;5030444;28;20239;-37
2022/05/05 12:04:51;;;;;;;15.18;12.20;;;21.50;96.70;;;;;;5039976;28;20302;-37
2022/05/05 12:07:21;;;;;;;15.45;13.77;;;21.50;96.80;;;;;;5050036;28;20291;-37
2022/05/05 12:09:55;;;;;;;13.20;11.88;;;21.50;96.80;;;;;;5036234;28;20256;-37
2022/05/05 12:12:25;;;;;;;15.25;11.18;;;21.60;96.80;;;;;;5030524;28;20240;-37
2022/05/05 12:14:56;;;;;;;15.70;12.48;;;21.60;96.90;;;;;;5029614;28;20265;-37
2022/05/05 12:17:52;;;;;;;13.05;11.35;;;21.70;96.90;;;;;;5031080;28;20221;-37
2022/05/05 12:20:20;;;;;;;13.90;11.63;;;21.80;96.80;;;;;;5028730;28;20213;-37
2022/05/05 12:23:02;;;;;;;13.43;11.40;;;21.90;96.80;;;;;;5028879;28;20267;-37
2022/05/05 12:25:29;;;;;;;14.90;11.23;;;21.90;96.90;;;;;;5027464;28;20586;-37
2022/05/05 12:27:59;;;;;;;15.68;12.27;;;22.00;97.00;;;;;;5037273;28;20278;-37
2022/05/05 12:30:33;;;;;;;15.05;12.77;;;22.00;96.80;;;;;;5043701;28;20218;-37
2022/05/05 12:33:02;;;;;;;14.38;11.95;;;22.00;96.70;;;;;;5048886;28;20699;-37
2022/05/05 12:35:36;;;;;;;14.07;12.35;;;22.10;96.70;;;;;;5037021;28;20200;-37
2022/05/05 12:38:05;;;;;;;15.80;12.65;;;22.20;96.30;;;;;;5043037;28;20256;-37
2022/05/05 12:40:34;;;;;;;14.35;12.38;;;22.20;96.50;;;;;;5039079;28;20241;-37
2022/05/05 12:43:07;;;;;;;14.00;12.48;;;22.30;96.60;;;;;;5028848;28;20287;-37
2022/05/05 12:45:36;;;;;;;15.90;13.00;;;22.30;96.70;;;;;;5029725;28;20205;-37
2022/05/05 12:48:06;;;;;;;15.20;11.52;;;22.30;96.70;;;;;;5045538;28;20200;-37
2022/05/05 12:50:46;;;;;;;14.68;11.90;;;22.30;96.70;;;;;;5045758;28;20235;-37
2022/05/05 13:01:46;;;;;;;10.32;9.20;;;22.20;95.60;;;;;;5028892;28;20201;-37
2022/05/05 13:04:15;;;;;;;12.57;11.27;;;22.10;95.50;;;;;;5039779;28;20208;-36
2022/05/05 13:06:48;;;;;;;11.25;10.05;;;22.00;95.10;;;;;;5043852;28;20208;-36
2022/05/05 13:09:15;;;;;;;10.75;9.65;;;21.90;95.30;;;;;;5034405;28;20278;-36
2022/05/05 13:11:53;;;;;;;11.15;9.68;;;21.80;95.60;;;;;;5028721;28;20251;-36
2022/05/05 13:14:22;;;;;;;10.73;9.40;;;21.70;95.70;;;;;;5040763;28;20678;-37
2022/05/05 13:16:52;;;;;;;10.25;9.13;;;21.70;95.80;;;;;;5033411;28;20197;-36
2022/05/05 13:19:20;;;;;;;11.50;8.85;;;21.60;95.80;;;;;;5026432;28;20242;-36
2022/05/05 13:21:49;;;;;;;12.07;9.65;;;21.60;95.90;;;;;;5037340;28;20671;-37
2022/05/05 13:24:20;;;;;;;12.32;10.45;;;21.60;96.00;;;;;;5038406;28;20307;-37
2022/05/05 13:26:48;;;;;;;13.15;10.85;;;21.60;96.00;;;;;;5033114;28;20283;-37
2022/05/05 13:29:15;;;;;;;13.02;11.60;;;21.50;96.00;;;;;;5040472;28;20756;-37
2022/05/05 13:31:43;;;;;;;11.93;9.80;;;21.50;96.00;;;;;;5026068;28;20201;-37
2022/05/05 13:34:10;;;;;;;10.43;9.32;;;21.50;96.10;;;;;;5037355;28;20208;-38
2022/05/05 13:36:38;;;;;;;15.27;12.45;;;21.60;96.20;;;;;;5039161;28;20205;-37
2022/05/05 13:39:10;;;;;;;13.68;10.80;;;21.60;96.20;;;;;;5042528;28;20224;-37
2022/05/05 13:41:37;;;;;;;11.70;10.50;;;21.70;96.30;;;;;;5032101;28;20667;-37
2022/05/05 13:44:05;;;;;;;12.90;11.27;;;21.70;96.40;;;;;;5027720;28;20220;-37
2022/05/05 13:46:35;;;;;;;13.95;11.93;;;21.70;96.50;;;;;;5036919;28;20677;-37
2022/05/05 13:49:07;;;;;;;12.95;11.63;;;21.80;96.50;;;;;;5037855;28;20204;-37
2022/05/05 13:51:35;;;;;;;14.77;12.95;;;21.80;96.40;;;;;;5043681;28;20235;-37
2022/05/05 13:54:22;;;;;;;13.77;12.27;;;21.90;96.20;;;;;;5026135;28;20638;-37
2022/05/05 13:56:49;;;;;;;11.55;10.38;;;21.90;96.30;;;;;;5043351;28;20286;-37
2022/05/05 13:59:16;;;;;;;13.90;12.35;;;22.00;96.50;;;;;;5045383;28;20226;-37
2022/05/05 14:01:45;;;;;;;14.95;13.40;;;22.00;96.20;;;;;;5043484;28;20682;-36
2022/05/05 14:04:13;;;;;;;15.30;11.70;;;22.10;95.80;;;;;;5030348;28;20212;-36
2022/05/05 14:06:42;;;;;;;15.13;13.48;;;22.10;95.90;;;;;;5038408;28;20256;-37
2022/05/05 14:12:10;;;;;;;14.48;12.98;;;22.10;95.80;;;;;;5039659;28;20733;-37
2022/05/05 14:14:42;;;;;;;12.23;11.02;;;22.10;96.00;;;;;;5032431;28;20216;-37
2022/05/05 14:17:10;;;;;;;12.52;11.23;;;22.10;96.10;;;;;;5034732;28;20773;-37
2022/05/05 14:19:39;;;;;;;17.58;13.63;;;22.10;96.10;;;;;;5028962;28;20203;-37
2022/05/05 14:22:07;;;;;;;15.73;14.13;;;22.10;96.00;;;;;;5027210;28;20479;-37
2022/05/05 14:24:35;;;;;;;16.17;14.52;;;22.20;96.00;;;;;;5030891;28;20304;-35
2022/05/05 14:27:03;;;;;;;13.52;12.25;;;22.20;96.10;;;;;;5033084;28;20211;-36
2022/05/05 14:29:30;;;;;;;12.60;11.30;;;22.20;96.00;;;;;;5033266;28;20204;-36
2022/05/05 14:31:57;;;;;;;14.65;13.35;;;22.20;96.30;;;;;;5033016;28;20204;-36
2022/05/05 14:34:25;;;;;;;14.63;12.98;;;22.30;96.10;;;;;;5034222;28;20867;-36
2022/05/05 14:36:54;;;;;;;16.45;14.85;;;22.40;96.40;;;;;;5032787;28;20208;-37
2022/05/05 14:39:21;;;;;;;19.80;17.83;;;22.40;96.30;;;;;;5031433;28;20220;-36
2022/05/05 14:41:49;;;;;;;16.70;15.10;;;22.50;95.80;;;;;;5040257;28;20212;-36
2022/05/05 14:44:16;;;;;;;16.65;15.18;;;22.60;95.90;;;;;;5030446;28;20196;-36
2022/05/05 14:46:43;;;;;;;18.50;16.80;;;22.60;95.40;;;;;;5035409;28;20213;-37
2022/05/05 14:49:13;;;;;;;15.80;14.30;;;22.60;95.50;;;;;;5033374;28;20204;-37